Sugar Creek, Illinois
Current Conditions -  °F | °C
As of 9:58 PM on Sunday 21 Dec 2014 (Local Time) from KBLV Reporting Station
Overcast Overcast  
Wind Chill: 36°   Ceiling: 8000
Heat Index: 40°   Visibility: 10mi
Dew Point: 34°   Wind: 6mph
Humidity: 78%   Direction: 120°ESE
Pressure: 29.97"   Gusts: NA
Location:  38.6397°N, 89.6153°W
Report Text: KBLV 220358Z AUTO 12005KT 10SM SCT060 BKN080 OVC095 05/01 A2997 RMK AO2 CIG 060 RWY32L SLP155 T00450010 $
Loading
Personal Weather Stations






























Interactive Weather Map New forecast layout! Learn more

10-Day Weather Forecast

Advertisements
Track Severe Weather on mobile